• Join FlightAware (Why Join?)
  • Login
  • US Flag 
12:06PM EDT


 

Airport Tracker/Info


-or-


 

Live Flight TrackerFlight Track Log ✈ CSN6338 ✈ 28-Mar-2014 ✈ ZJHK / HAK - ZSNJ / NKG

Flight Track Log - Related Links

Times and Time Zones

All times are in EDT time to prevent confusion due to time zone crossing. See the CSN6338 flight status page for this flight to view local times or setup timezone preferences in your user account.

Time Position Orientation Groundspeed Altitude Reporting Facility
EDT Latitude Longitude Course Direction KTS MPH feet Rate Location/Type
02:42AM 20.0303 110.5197 31° Northeast  Level Estimated
02:43AM 20.1256 110.5806 31° Northeast  Level Estimated
02:44AM 20.2210 110.6415 31° Northeast  Level Estimated
02:45AM 20.3164 110.7024 31° Northeast  Level Estimated
02:46AM 20.4117 110.7635 31° Northeast  Level Estimated
02:47AM 20.5070 110.8246 31° Northeast  Level Estimated
02:48AM 20.6022 110.8858 31° Northeast  Level Estimated
02:49AM 20.6975 110.9471 31° Northeast  Level Estimated
02:50AM 20.7927 111.0085 31° Northeast  Level Estimated
02:51AM 20.8880 111.0699 31° Northeast  Level Estimated
02:52AM 20.9831 111.1314 31° Northeast  Level Estimated
02:53AM 21.0783 111.1930 31° Northeast  Level Estimated
02:54AM 21.1735 111.2547 31° Northeast  Level Estimated
02:55AM 21.2686 111.3165 31° Northeast  Level Estimated
02:56AM 21.3637 111.3783 31° Northeast  Level Estimated
02:57AM 21.4588 111.4402 31° Northeast  Level Estimated
02:58AM 21.5538 111.5022 31° Northeast  Level Estimated
02:59AM 21.6488 111.5643 31° Northeast  Level Estimated
03:00AM 21.7439 111.6264 31° Northeast  Level Estimated
03:01AM 21.8389 111.6887 31° Northeast  Level Estimated
03:02AM 21.9338 111.7510 31° Northeast  Level Estimated
03:03AM 22.0287 111.8134 31° Northeast  Level Estimated
03:04AM 22.1237 111.8759 31° Northeast  Level Estimated
03:05AM 22.2186 111.9385 31° Northeast  Level Estimated
03:06AM 22.3134 112.0011 31° Northeast  Level Estimated
03:07AM 22.4053 112.0619 31° Northeast  Level Estimated
03:08AM 22.4973 112.1228 31° Northeast  Level Estimated
03:09AM 22.5891 112.1838 31° Northeast  Level Estimated
03:10AM 22.6810 112.2449 32° Northeast  Level Estimated
03:11AM 22.7728 112.3060 32° Northeast  Level Estimated
03:12AM 22.8646 112.3672 32° Northeast  Level Estimated
03:13AM 22.9564 112.4285 32° Northeast  Level Estimated
03:14AM 23.0482 112.4899 32° Northeast  Level Estimated
03:15AM 23.1399 112.5514 32° Northeast  Level Estimated
03:16AM 23.2316 112.6129 32° Northeast  Level Estimated
03:17AM 23.3233 112.6746 32° Northeast  Level Estimated
03:18AM 23.4150 112.7363 32° Northeast  Level Estimated
03:19AM 23.5067 112.7981 32° Northeast  Level Estimated
03:20AM 23.5983 112.8600 32° Northeast  Level Estimated
03:21AM 23.6899 112.9220 32° Northeast  Level Estimated
03:22AM 23.7814 112.9840 32° Northeast  Level Estimated
03:23AM 23.8730 113.0462 32° Northeast  Level Estimated
03:24AM 23.9645 113.1084 32° Northeast  Level Estimated
03:25AM 24.0560 113.1708 32° Northeast  Level Estimated
03:26AM 24.1475 113.2332 32° Northeast  Level Estimated
03:27AM 24.2389 113.2957 32° Northeast  Level Estimated
03:28AM 24.3303 113.3583 32° Northeast  Level Estimated
03:29AM 24.4217 113.4210 32° Northeast  Level Estimated
03:30AM 24.5131 113.4838 32° Northeast  Level Estimated
03:31AM 24.6044 113.5466 32° Northeast  Level Estimated
03:32AM 24.6957 113.6096 32° Northeast  Level Estimated
03:33AM 24.7870 113.6727 32° Northeast  Level Estimated
03:34AM 24.8783 113.7358 32° Northeast  Level Estimated
03:35AM 24.9695 113.7990 32° Northeast  Level Estimated
03:36AM 25.0607 113.8624 32° Northeast  Level Estimated
03:37AM 25.1519 113.9258 32° Northeast  Level Estimated
03:38AM 25.2431 113.9893 32° Northeast  Level Estimated
03:39AM 25.3342 114.0530 32° Northeast  Level Estimated
03:40AM 25.4253 114.1167 32° Northeast  Level Estimated
03:41AM 25.5164 114.1805 32° Northeast  Level Estimated
03:42AM 25.6074 114.2444 32° Northeast  Level Estimated
03:43AM 25.6985 114.3084 32° Northeast  Level Estimated
03:44AM 25.7894 114.3725 32° Northeast  Level Estimated
03:45AM 25.8804 114.4367 32° Northeast  Level Estimated
03:46AM 25.9713 114.5010 32° Northeast  Level Estimated
03:47AM 26.0622 114.5654 32° Northeast  Level Estimated
03:48AM 26.1531 114.6299 32° Northeast  Level Estimated
03:49AM 26.2440 114.6945 33° Northeast  Level Estimated
03:50AM 26.3348 114.7592 33° Northeast  Level Estimated
03:51AM 26.4256 114.8240 33° Northeast  Level Estimated
03:52AM 26.5163 114.8889 33° Northeast  Level Estimated
03:53AM 26.6071 114.9539 33° Northeast  Level Estimated
03:54AM 26.6978 115.0191 33° Northeast  Level Estimated
03:55AM 26.7884 115.0843 33° Northeast  Level Estimated
03:56AM 26.8791 115.1496 33° Northeast  Level Estimated
03:57AM 26.9697 115.2150 33° Northeast  Level Estimated
03:58AM 27.0603 115.2806 33° Northeast  Level Estimated
03:59AM 27.1508 115.3462 33° Northeast  Level Estimated
04:00AM 27.2413 115.4119 33° Northeast  Level Estimated
04:01AM 27.3318 115.4778 33° Northeast  Level Estimated
04:02AM 27.4223 115.5437 33° Northeast  Level Estimated
04:03AM 27.5127 115.6098 33° Northeast  Level Estimated
04:04AM 27.6031 115.6760 33° Northeast  Level Estimated
04:05AM 27.6935 115.7423 33° Northeast  Level Estimated
04:06AM 27.7838 115.8087 33° Northeast  Level Estimated
04:07AM 27.8741 115.8752 33° Northeast  Level Estimated
04:08AM 27.9644 115.9418 33° Northeast  Level Estimated
04:09AM 28.0546 116.0085 33° Northeast  Level Estimated
04:10AM 28.1448 116.0754 33° Northeast  Level Estimated
04:11AM 28.2350 116.1423 33° Northeast  Level Estimated
04:12AM 28.3251 116.2094 33° Northeast  Level Estimated
04:13AM 28.4153 116.2766 33° Northeast  Level Estimated
04:14AM 28.5053 116.3439 33° Northeast  Level Estimated
04:15AM 28.5954 116.4113 33° Northeast  Level Estimated
04:16AM 28.6854 116.4788 33° Northeast  Level Estimated
04:17AM 28.7753 116.5464 33° Northeast  Level Estimated
04:18AM 28.8653 116.6142 33° Northeast  Level Estimated
04:19AM 28.9552 116.6821 33° Northeast  Level Estimated
04:20AM 29.0451 116.7501 33° Northeast  Level Estimated
04:21AM 29.1349 116.8182 34° Northeast  Level Estimated
04:22AM 29.2247 116.8864 34° Northeast  Level Estimated
04:23AM 29.3145 116.9547 34° Northeast  Level Estimated
04:24AM 29.4042 117.0232 34° Northeast  Level Estimated
04:25AM 29.4939 117.0918 34° Northeast  Level Estimated
04:26AM 29.5836 117.1605 34° Northeast  Level Estimated
04:27AM 29.6732 117.2293 34° Northeast  Level Estimated
04:28AM 29.7628 117.2983 34° Northeast  Level Estimated
04:29AM 29.8523 117.3674 34° Northeast  Level Estimated
04:30AM 29.9419 117.4366 34° Northeast  Level Estimated
04:31AM 30.0313 117.5059 34° Northeast  Level Estimated
04:32AM 30.1208 117.5754 34° Northeast  Level Estimated
04:33AM 30.2102 117.6450 34° Northeast  Level Estimated
04:34AM 30.2996 117.7147 34° Northeast  Level Estimated
04:35AM 30.3889 117.7845 34° Northeast  Level Estimated
04:36AM 30.4782 117.8545 34° Northeast  Level Estimated
04:37AM 30.5675 117.9246 34° Northeast  Level Estimated
04:38AM 30.6567 117.9948 34° Northeast  Level Estimated
04:39AM 30.7459 118.0651 34° Northeast  Level Estimated
04:40AM 30.8350 118.1356 34° Northeast  Level Estimated
04:41AM 30.9242 118.2062 34° Northeast  Level Estimated
04:42AM 31.0132 118.2770 34° Northeast  Level Estimated
04:43AM 31.1023 118.3478 34° Northeast  Level Estimated
04:44AM 31.1913 118.4189 34° Northeast  Level Estimated
04:45AM 31.2802 118.4900 34° Northeast  Level Estimated
04:46AM 31.3691 118.5613 34° Northeast  Level Estimated
04:47AM 31.4580 118.6327 34° Northeast  Level Estimated
04:48AM 31.5468 118.7042 34° Northeast  Level Estimated
04:49AM 31.6356 118.7759 34° Northeast  Level Estimated
04:50AM 31.7244 118.8477 35° Northeast  Level Estimated
04:51AM 31.7421 118.8620 35° Northeast  Level Estimated
04:52AM 31.7421 118.8620 North  Level Estimated
04:53AM 31.7421 118.8620 North  Level Estimated
04:54AM 31.7421 118.8620 North  Level Estimated
04:55AM 31.7421 118.8620 North  Level Estimated
04:56AM 31.7421 118.8620 North  Level Estimated
04:57AM 31.7421 118.8620 North  Level Estimated
04:58AM 31.7421 118.8620 North  Level Estimated
04:59AM 31.7421 118.8620 North  Level Estimated
05:00AM 31.7421 118.8620 North  Level Estimated
05:01AM 31.7421 118.8620 North  Level Estimated
05:02AM 31.7421 118.8620 North  Level Estimated
05:03AM 31.7421 118.8620 North  Level Estimated
05:04AM 31.7421 118.8620 North  Level Estimated
05:05AM 31.7421 118.8620 North  Level Estimated
05:06AM 31.7421 118.8620 North  Level Estimated
05:07AM 31.7421 118.8620 North  Level Estimated
05:08AM 31.7421 118.8620 North  Level Estimated
05:09AM 31.7421 118.8620 North  Level Estimated
05:10AM 31.7421 118.8620 North  Level Estimated
05:11AM 31.7421 118.8620 North  Level Estimated
05:12AM 31.7421 118.8620 North  Level Estimated
05:13AM 31.7421 118.8620 North  Level Estimated
05:14AM 31.7421 118.8620 North  Level Estimated
05:15AM 31.7421 118.8620 North  Level Estimated
05:16AM 31.7421 118.8620 North  Level Estimated
05:17AM 31.7421 118.8620 North  Level Estimated
05:18AM 31.7421 118.8620 North  Level Estimated
05:19AM 31.7421 118.8620 North  Level Estimated